sensor_id;sensor_type;location;lat;lon;timestamp;temperature;humidity
63802;DHT22;49949;43.060;25.624;2022-08-24T00:02:06;20.50;99.90
63802;DHT22;49949;43.060;25.624;2022-08-24T00:04:32;20.50;99.90
63802;DHT22;49949;43.060;25.624;2022-08-24T00:07:00;20.50;99.90
63802;DHT22;49949;43.060;25.624;2022-08-24T00:09:25;20.50;99.90
63802;DHT22;49949;43.060;25.624;2022-08-24T00:11:51;20.50;99.90
63802;DHT22;49949;43.060;25.624;2022-08-24T00:14:17;20.40;99.90
63802;DHT22;49949;43.060;25.624;2022-08-24T00:16:43;20.40;99.90
63802;DHT22;49949;43.060;25.624;2022-08-24T00:19:09;20.40;99.90
63802;DHT22;49949;43.060;25.624;2022-08-24T00:21:36;20.40;99.90
63802;DHT22;49949;43.060;25.624;2022-08-24T00:24:02;20.40;99.90
63802;DHT22;49949;43.060;25.624;2022-08-24T00:26:28;20.40;99.90
63802;DHT22;49949;43.060;25.624;2022-08-24T00:28:53;20.40;99.90
63802;DHT22;49949;43.060;25.624;2022-08-24T00:31:19;20.40;99.90
63802;DHT22;49949;43.060;25.624;2022-08-24T00:33:45;20.40;99.90
63802;DHT22;49949;43.060;25.624;2022-08-24T00:36:10;20.40;99.90
63802;DHT22;49949;43.060;25.624;2022-08-24T00:38:36;20.40;99.90
63802;DHT22;49949;43.060;25.624;2022-08-24T00:41:03;20.40;99.90
63802;DHT22;49949;43.060;25.624;2022-08-24T00:43:29;20.40;99.90
63802;DHT22;49949;43.060;25.624;2022-08-24T00:48:30;20.50;99.90
63802;DHT22;49949;43.060;25.624;2022-08-24T00:53:42;20.50;99.90
63802;DHT22;49949;43.060;25.624;2022-08-24T00:56:13;20.50;99.90
63802;DHT22;49949;43.060;25.624;2022-08-24T00:58:47;20.50;99.90
63802;DHT22;49949;43.060;25.624;2022-08-24T01:01:13;20.50;99.90
63802;DHT22;49949;43.060;25.624;2022-08-24T01:03:41;20.40;99.90
63802;DHT22;49949;43.060;25.624;2022-08-24T01:06:08;20.40;99.90
63802;DHT22;49949;43.060;25.624;2022-08-24T01:08:35;20.40;99.90
63802;DHT22;49949;43.060;25.624;2022-08-24T01:11:04;20.40;99.90
63802;DHT22;49949;43.060;25.624;2022-08-24T01:13:31;20.50;99.90
63802;DHT22;49949;43.060;25.624;2022-08-24T01:16:02;20.50;99.90
63802;DHT22;49949;43.060;25.624;2022-08-24T01:18:29;20.60;99.90
63802;DHT22;49949;43.060;25.624;2022-08-24T01:21:24;20.60;99.90
63802;DHT22;49949;43.060;25.624;2022-08-24T01:24:02;20.60;99.90
63802;DHT22;49949;43.060;25.624;2022-08-24T01:26:34;20.60;99.90
63802;DHT22;49949;43.060;25.624;2022-08-24T01:29:13;20.60;99.90
63802;DHT22;49949;43.060;25.624;2022-08-24T01:31:40;20.50;99.90
63802;DHT22;49949;43.060;25.624;2022-08-24T01:34:06;20.50;99.90
63802;DHT22;49949;43.060;25.624;2022-08-24T01:36:39;20.50;99.90
63802;DHT22;49949;43.060;25.624;2022-08-24T01:39:14;20.40;99.90
63802;DHT22;49949;43.060;25.624;2022-08-24T01:41:40;20.40;99.90
63802;DHT22;49949;43.060;25.624;2022-08-24T01:44:06;20.40;99.90
63802;DHT22;49949;43.060;25.624;2022-08-24T01:46:32;20.40;99.90
63802;DHT22;49949;43.060;25.624;2022-08-24T01:48:58;20.40;99.90
63802;DHT22;49949;43.060;25.624;2022-08-24T01:51:32;20.30;99.90
63802;DHT22;49949;43.060;25.624;2022-08-24T01:53:59;20.30;99.90
63802;DHT22;49949;43.060;25.624;2022-08-24T01:56:27;20.30;99.90
63802;DHT22;49949;43.060;25.624;2022-08-24T01:58:53;20.30;99.90
63802;DHT22;49949;43.060;25.624;2022-08-24T02:01:19;20.30;99.90
63802;DHT22;49949;43.060;25.624;2022-08-24T02:03:45;20.30;99.90
63802;DHT22;49949;43.060;25.624;2022-08-24T02:06:11;20.30;99.90
63802;DHT22;49949;43.060;25.624;2022-08-24T02:08:37;20.20;99.90
63802;DHT22;49949;43.060;25.624;2022-08-24T02:11:06;20.20;99.90
63802;DHT22;49949;43.060;25.624;2022-08-24T02:13:37;20.20;99.90
63802;DHT22;49949;43.060;25.624;2022-08-24T02:16:04;20.30;99.90
63802;DHT22;49949;43.060;25.624;2022-08-24T02:18:32;20.30;99.90
63802;DHT22;49949;43.060;25.624;2022-08-24T02:20:58;20.30;99.90
63802;DHT22;49949;43.060;25.624;2022-08-24T02:23:24;20.30;99.90
63802;DHT22;49949;43.060;25.624;2022-08-24T02:25:50;20.30;99.90
63802;DHT22;49949;43.060;25.624;2022-08-24T02:28:17;20.20;99.90
63802;DHT22;49949;43.060;25.624;2022-08-24T02:30:43;20.20;99.90
63802;DHT22;49949;43.060;25.624;2022-08-24T02:33:09;20.20;99.90
63802;DHT22;49949;43.060;25.624;2022-08-24T02:35:35;20.20;99.90
63802;DHT22;49949;43.060;25.624;2022-08-24T02:38:01;20.20;99.90
63802;DHT22;49949;43.060;25.624;2022-08-24T02:40:27;20.30;99.90
63802;DHT22;49949;43.060;25.624;2022-08-24T02:42:54;20.30;99.90
63802;DHT22;49949;43.060;25.624;2022-08-24T02:45:20;20.30;99.90
63802;DHT22;49949;43.060;25.624;2022-08-24T02:47:46;20.30;99.90
63802;DHT22;49949;43.060;25.624;2022-08-24T02:50:13;20.30;99.90
63802;DHT22;49949;43.060;25.624;2022-08-24T02:52:40;20.40;99.90
63802;DHT22;49949;43.060;25.624;2022-08-24T02:55:09;20.40;99.90
63802;DHT22;49949;43.060;25.624;2022-08-24T02:57:35;20.40;99.90
63802;DHT22;49949;43.060;25.624;2022-08-24T03:00:01;20.40;99.90
63802;DHT22;49949;43.060;25.624;2022-08-24T03:02:26;20.40;99.90
63802;DHT22;49949;43.060;25.624;2022-08-24T03:04:52;20.30;99.90
63802;DHT22;49949;43.060;25.624;2022-08-24T03:07:18;20.30;99.90
63802;DHT22;49949;43.060;25.624;2022-08-24T03:09:44;20.40;99.90
63802;DHT22;49949;43.060;25.624;2022-08-24T03:12:10;20.40;99.90
63802;DHT22;49949;43.060;25.624;2022-08-24T03:14:36;20.40;99.90
63802;DHT22;49949;43.060;25.624;2022-08-24T03:17:03;20.40;99.90
63802;DHT22;49949;43.060;25.624;2022-08-24T03:19:28;20.40;99.90
63802;DHT22;49949;43.060;25.624;2022-08-24T03:21:55;20.40;99.90
63802;DHT22;49949;43.060;25.624;2022-08-24T03:24:21;20.40;99.90
63802;DHT22;49949;43.060;25.624;2022-08-24T03:26:46;20.40;99.90
63802;DHT22;49949;43.060;25.624;2022-08-24T03:29:13;20.40;99.90
63802;DHT22;49949;43.060;25.624;2022-08-24T03:31:39;20.40;99.90
63802;DHT22;49949;43.060;25.624;2022-08-24T03:34:04;20.40;99.90
63802;DHT22;49949;43.060;25.624;2022-08-24T03:36:30;20.40;99.90
63802;DHT22;49949;43.060;25.624;2022-08-24T03:38:56;20.30;99.90
63802;DHT22;49949;43.060;25.624;2022-08-24T03:41:22;20.40;99.90
63802;DHT22;49949;43.060;25.624;2022-08-24T03:43:48;20.30;99.90
63802;DHT22;49949;43.060;25.624;2022-08-24T03:46:19;20.40;99.90
63802;DHT22;49949;43.060;25.624;2022-08-24T03:48:46;20.40;99.90
63802;DHT22;49949;43.060;25.624;2022-08-24T03:51:18;20.40;99.90
63802;DHT22;49949;43.060;25.624;2022-08-24T03:53:44;20.40;99.90
63802;DHT22;49949;43.060;25.624;2022-08-24T03:56:10;20.40;99.90
63802;DHT22;49949;43.060;25.624;2022-08-24T03:58:38;20.40;99.90
63802;DHT22;49949;43.060;25.624;2022-08-24T04:01:06;20.40;99.90
63802;DHT22;49949;43.060;25.624;2022-08-24T04:03:39;20.50;99.90
63802;DHT22;49949;43.060;25.624;2022-08-24T04:06:07;20.50;99.90
63802;DHT22;49949;43.060;25.624;2022-08-24T04:08:33;20.60;99.90
63802;DHT22;49949;43.060;25.624;2022-08-24T04:11:00;20.70;99.90
63802;DHT22;49949;43.060;25.624;2022-08-24T04:13:27;20.70;99.90
63802;DHT22;49949;43.060;25.624;2022-08-24T04:16:17;20.70;99.90
63802;DHT22;49949;43.060;25.624;2022-08-24T04:18:45;20.60;99.90
63802;DHT22;49949;43.060;25.624;2022-08-24T04:21:32;20.60;99.90
63802;DHT22;49949;43.060;25.624;2022-08-24T04:23:58;20.70;99.90
63802;DHT22;49949;43.060;25.624;2022-08-24T04:26:26;20.70;99.90
63802;DHT22;49949;43.060;25.624;2022-08-24T04:28:52;20.70;99.90
63802;DHT22;49949;43.060;25.624;2022-08-24T04:31:19;20.70;99.90
63802;DHT22;49949;43.060;25.624;2022-08-24T04:33:45;20.80;99.90
63802;DHT22;49949;43.060;25.624;2022-08-24T04:36:16;20.80;99.90
63802;DHT22;49949;43.060;25.624;2022-08-24T04:38:42;20.80;99.90
63802;DHT22;49949;43.060;25.624;2022-08-24T04:41:09;20.90;99.90
63802;DHT22;49949;43.060;25.624;2022-08-24T04:43:40;21.00;99.90
63802;DHT22;49949;43.060;25.624;2022-08-24T04:46:10;21.00;99.90
63802;DHT22;49949;43.060;25.624;2022-08-24T04:48:40;21.00;99.90
63802;DHT22;49949;43.060;25.624;2022-08-24T04:51:08;20.90;99.90
63802;DHT22;49949;43.060;25.624;2022-08-24T04:53:34;20.90;99.90
63802;DHT22;49949;43.060;25.624;2022-08-24T04:56:00;20.90;99.90
63802;DHT22;49949;43.060;25.624;2022-08-24T04:58:28;21.00;99.90
63802;DHT22;49949;43.060;25.624;2022-08-24T05:00:54;20.90;99.90
63802;DHT22;49949;43.060;25.624;2022-08-24T05:03:20;20.90;99.90
63802;DHT22;49949;43.060;25.624;2022-08-24T05:05:48;20.90;99.90
63802;DHT22;49949;43.060;25.624;2022-08-24T05:08:15;20.90;99.90
63802;DHT22;49949;43.060;25.624;2022-08-24T05:10:44;20.90;99.90
63802;DHT22;49949;43.060;25.624;2022-08-24T05:13:11;20.90;99.90
63802;DHT22;49949;43.060;25.624;2022-08-24T05:15:41;20.90;99.90
63802;DHT22;49949;43.060;25.624;2022-08-24T05:18:07;20.90;99.90
63802;DHT22;49949;43.060;25.624;2022-08-24T05:20:33;20.90;99.90
63802;DHT22;49949;43.060;25.624;2022-08-24T05:23:00;20.80;99.90
63802;DHT22;49949;43.060;25.624;2022-08-24T05:25:26;20.80;99.90
63802;DHT22;49949;43.060;25.624;2022-08-24T05:27:52;20.80;99.90
63802;DHT22;49949;43.060;25.624;2022-08-24T05:30:18;20.90;99.90
63802;DHT22;49949;43.060;25.624;2022-08-24T05:32:44;20.90;99.90
63802;DHT22;49949;43.060;25.624;2022-08-24T05:35:10;20.90;99.90
63802;DHT22;49949;43.060;25.624;2022-08-24T05:37:37;20.90;99.90
63802;DHT22;49949;43.060;25.624;2022-08-24T05:40:07;20.90;99.90
63802;DHT22;49949;43.060;25.624;2022-08-24T05:42:33;20.90;99.90
63802;DHT22;49949;43.060;25.624;2022-08-24T05:45:00;20.90;99.90
63802;DHT22;49949;43.060;25.624;2022-08-24T05:47:25;20.90;99.90
63802;DHT22;49949;43.060;25.624;2022-08-24T05:49:51;20.80;99.90
63802;DHT22;49949;43.060;25.624;2022-08-24T05:52:19;20.80;99.90
63802;DHT22;49949;43.060;25.624;2022-08-24T05:54:45;20.80;99.90
63802;DHT22;49949;43.060;25.624;2022-08-24T05:57:15;20.90;99.90
63802;DHT22;49949;43.060;25.624;2022-08-24T05:59:40;20.80;99.90
63802;DHT22;49949;43.060;25.624;2022-08-24T06:02:06;20.80;99.90
63802;DHT22;49949;43.060;25.624;2022-08-24T06:04:32;20.80;99.90
63802;DHT22;49949;43.060;25.624;2022-08-24T06:06:58;20.80;99.90
63802;DHT22;49949;43.060;25.624;2022-08-24T06:09:24;20.80;99.90
63802;DHT22;49949;43.060;25.624;2022-08-24T06:11:50;20.80;99.90
63802;DHT22;49949;43.060;25.624;2022-08-24T06:14:17;20.80;99.90
63802;DHT22;49949;43.060;25.624;2022-08-24T06:16:45;20.80;99.90
63802;DHT22;49949;43.060;25.624;2022-08-24T06:19:13;20.70;99.90
63802;DHT22;49949;43.060;25.624;2022-08-24T06:21:39;20.70;99.90
63802;DHT22;49949;43.060;25.624;2022-08-24T06:24:06;20.70;99.90
63802;DHT22;49949;43.060;25.624;2022-08-24T06:26:32;20.70;99.90
63802;DHT22;49949;43.060;25.624;2022-08-24T06:29:18;20.60;99.90
63802;DHT22;49949;43.060;25.624;2022-08-24T06:31:46;20.70;99.90
63802;DHT22;49949;43.060;25.624;2022-08-24T06:34:14;20.60;99.90
63802;DHT22;49949;43.060;25.624;2022-08-24T06:36:41;20.60;99.90
63802;DHT22;49949;43.060;25.624;2022-08-24T06:39:08;20.60;99.90
63802;DHT22;49949;43.060;25.624;2022-08-24T06:41:34;20.60;99.90
63802;DHT22;49949;43.060;25.624;2022-08-24T06:44:00;20.60;99.90
63802;DHT22;49949;43.060;25.624;2022-08-24T06:46:26;20.60;99.90
63802;DHT22;49949;43.060;25.624;2022-08-24T06:48:53;20.70;99.90
63802;DHT22;49949;43.060;25.624;2022-08-24T06:51:20;20.60;99.90
63802;DHT22;49949;43.060;25.624;2022-08-24T06:53:48;20.70;99.90
63802;DHT22;49949;43.060;25.624;2022-08-24T06:56:15;20.70;99.90
63802;DHT22;49949;43.060;25.624;2022-08-24T06:58:42;20.70;99.90
63802;DHT22;49949;43.060;25.624;2022-08-24T07:01:14;20.80;99.90
63802;DHT22;49949;43.060;25.624;2022-08-24T07:03:41;20.80;99.90
63802;DHT22;49949;43.060;25.624;2022-08-24T07:06:07;20.80;99.90
63802;DHT22;49949;43.060;25.624;2022-08-24T07:08:34;20.80;99.90
63802;DHT22;49949;43.060;25.624;2022-08-24T07:11:00;20.80;99.90
63802;DHT22;49949;43.060;25.624;2022-08-24T07:13:27;20.90;99.90
63802;DHT22;49949;43.060;25.624;2022-08-24T07:15:56;20.90;99.90
63802;DHT22;49949;43.060;25.624;2022-08-24T07:18:22;21.00;99.90
63802;DHT22;49949;43.060;25.624;2022-08-24T07:20:48;20.90;99.90
63802;DHT22;49949;43.060;25.624;2022-08-24T07:23:15;20.90;99.90
63802;DHT22;49949;43.060;25.624;2022-08-24T07:25:43;20.90;99.90
63802;DHT22;49949;43.060;25.624;2022-08-24T07:28:09;20.80;99.90
63802;DHT22;49949;43.060;25.624;2022-08-24T07:30:37;20.80;99.90
63802;DHT22;49949;43.060;25.624;2022-08-24T07:33:03;20.70;99.90
63802;DHT22;49949;43.060;25.624;2022-08-24T07:35:30;20.70;99.90
63802;DHT22;49949;43.060;25.624;2022-08-24T07:37:57;20.70;99.90
63802;DHT22;49949;43.060;25.624;2022-08-24T07:40:24;20.70;99.90
63802;DHT22;49949;43.060;25.624;2022-08-24T07:42:51;20.70;99.90
63802;DHT22;49949;43.060;25.624;2022-08-24T07:45:18;20.70;99.90
63802;DHT22;49949;43.060;25.624;2022-08-24T07:47:45;20.70;99.90
63802;DHT22;49949;43.060;25.624;2022-08-24T07:50:12;20.70;99.90
63802;DHT22;49949;43.060;25.624;2022-08-24T07:52:38;20.70;99.90
63802;DHT22;49949;43.060;25.624;2022-08-24T07:55:05;20.60;99.90
63802;DHT22;49949;43.060;25.624;2022-08-24T07:57:31;20.70;99.90
63802;DHT22;49949;43.060;25.624;2022-08-24T08:00:03;20.70;99.90
63802;DHT22;49949;43.060;25.624;2022-08-24T08:02:31;20.80;99.90
63802;DHT22;49949;43.060;25.624;2022-08-24T08:04:58;20.80;99.90
63802;DHT22;49949;43.060;25.624;2022-08-24T08:07:24;20.90;99.90
63802;DHT22;49949;43.060;25.624;2022-08-24T08:09:50;20.90;99.90
63802;DHT22;49949;43.060;25.624;2022-08-24T08:12:16;21.00;99.90
63802;DHT22;49949;43.060;25.624;2022-08-24T08:14:44;21.10;99.90
63802;DHT22;49949;43.060;25.624;2022-08-24T08:17:10;21.10;99.90
63802;DHT22;49949;43.060;25.624;2022-08-24T08:19:36;21.20;99.90
63802;DHT22;49949;43.060;25.624;2022-08-24T08:22:01;21.30;99.90
63802;DHT22;49949;43.060;25.624;2022-08-24T08:24:46;21.50;99.90
63802;DHT22;49949;43.060;25.624;2022-08-24T08:27:12;21.70;99.90
63802;DHT22;49949;43.060;25.624;2022-08-24T08:29:41;22.00;99.90
63802;DHT22;49949;43.060;25.624;2022-08-24T08:32:08;22.30;99.90
63802;DHT22;49949;43.060;25.624;2022-08-24T08:34:35;22.70;99.90
63802;DHT22;49949;43.060;25.624;2022-08-24T08:37:00;23.10;99.90
63802;DHT22;49949;43.060;25.624;2022-08-24T08:39:28;23.80;99.90
63802;DHT22;49949;43.060;25.624;2022-08-24T08:42:08;24.40;99.90
63802;DHT22;49949;43.060;25.624;2022-08-24T08:50:30;25.50;99.90
63802;DHT22;49949;43.060;25.624;2022-08-24T08:56:14;25.80;99.90
63802;DHT22;49949;43.060;25.624;2022-08-24T09:07:28;26.30;99.90
63802;DHT22;49949;43.060;25.624;2022-08-24T09:10:29;26.10;99.90
63802;DHT22;49949;43.060;25.624;2022-08-24T09:16:03;25.60;99.90
63802;DHT22;49949;43.060;25.624;2022-08-24T09:18:54;25.40;99.90
63802;DHT22;49949;43.060;25.624;2022-08-24T09:21:54;25.30;99.90
63802;DHT22;49949;43.060;25.624;2022-08-24T09:31:02;25.20;99.90
63802;DHT22;49949;43.060;25.624;2022-08-24T09:36:53;25.50;99.90
63802;DHT22;49949;43.060;25.624;2022-08-24T09:57:57;26.40;99.90
63802;DHT22;49949;43.060;25.624;2022-08-24T10:03:05;26.50;99.90
63802;DHT22;49949;43.060;25.624;2022-08-24T10:25:55;27.10;99.90
63802;DHT22;49949;43.060;25.624;2022-08-24T10:31:38;27.20;99.90
63802;DHT22;49949;43.060;25.624;2022-08-24T10:34:33;27.10;99.90
63802;DHT22;49949;43.060;25.624;2022-08-24T10:40:06;27.30;99.90
63802;DHT22;49949;43.060;25.624;2022-08-24T10:53:36;27.10;99.90
63802;DHT22;49949;43.060;25.624;2022-08-24T10:56:11;27.10;99.90
63802;DHT22;49949;43.060;25.624;2022-08-24T11:04:07;26.90;99.90
63802;DHT22;49949;43.060;25.624;2022-08-24T11:09:42;26.50;99.90
63802;DHT22;49949;43.060;25.624;2022-08-24T11:12:22;26.20;99.90
63802;DHT22;49949;43.060;25.624;2022-08-24T11:14:49;26.20;99.90
63802;DHT22;49949;43.060;25.624;2022-08-24T11:17:21;26.10;99.90
63802;DHT22;49949;43.060;25.624;2022-08-24T11:19:48;26.10;99.90
63802;DHT22;49949;43.060;25.624;2022-08-24T11:22:32;26.10;99.90
63802;DHT22;49949;43.060;25.624;2022-08-24T11:25:14;26.20;99.90
63802;DHT22;49949;43.060;25.624;2022-08-24T11:27:44;26.30;99.90
63802;DHT22;49949;43.060;25.624;2022-08-24T11:32:55;26.60;99.90
63802;DHT22;49949;43.060;25.624;2022-08-24T11:38:07;27.20;99.90
63802;DHT22;49949;43.060;25.624;2022-08-24T11:40:41;27.40;99.90
63802;DHT22;49949;43.060;25.624;2022-08-24T11:43:32;27.60;99.90
63802;DHT22;49949;43.060;25.624;2022-08-24T11:49:05;27.60;99.90
63802;DHT22;49949;43.060;25.624;2022-08-24T11:54:18;27.90;99.90
63802;DHT22;49949;43.060;25.624;2022-08-24T12:00:11;28.20;99.90
63802;DHT22;49949;43.060;25.624;2022-08-24T12:02:57;28.20;99.90
63802;DHT22;49949;43.060;25.624;2022-08-24T12:13:40;28.20;99.90
63802;DHT22;49949;43.060;25.624;2022-08-24T12:21:49;28.00;99.90
63802;DHT22;49949;43.060;25.624;2022-08-24T12:27:00;28.00;99.90
63802;DHT22;49949;43.060;25.624;2022-08-24T12:29:36;28.10;99.90
63802;DHT22;49949;43.060;25.624;2022-08-24T12:37:14;28.30;99.90
63802;DHT22;49949;43.060;25.624;2022-08-24T12:42:53;28.50;99.90
63802;DHT22;49949;43.060;25.624;2022-08-24T12:45:22;28.50;99.90
63802;DHT22;49949;43.060;25.624;2022-08-24T12:50:39;28.30;99.90
63802;DHT22;49949;43.060;25.624;2022-08-24T12:56:13;28.00;99.90
63802;DHT22;49949;43.060;25.624;2022-08-24T13:01:17;27.80;99.90
63802;DHT22;49949;43.060;25.624;2022-08-24T13:03:48;27.70;99.90
63802;DHT22;49949;43.060;25.624;2022-08-24T13:09:13;27.60;99.90
63802;DHT22;49949;43.060;25.624;2022-08-24T13:11:39;27.40;99.90
63802;DHT22;49949;43.060;25.624;2022-08-24T13:14:18;27.30;99.90
63802;DHT22;49949;43.060;25.624;2022-08-24T13:29:40;26.90;99.90
63802;DHT22;49949;43.060;25.624;2022-08-24T13:32:24;27.00;99.90
63802;DHT22;49949;43.060;25.624;2022-08-24T13:34:56;27.10;99.90
63802;DHT22;49949;43.060;25.624;2022-08-24T13:37:25;27.10;99.90
63802;DHT22;49949;43.060;25.624;2022-08-24T13:40:16;27.10;99.90
63802;DHT22;49949;43.060;25.624;2022-08-24T13:42:46;27.10;99.90
63802;DHT22;49949;43.060;25.624;2022-08-24T13:45:20;27.20;99.90
63802;DHT22;49949;43.060;25.624;2022-08-24T13:48:06;27.30;99.90
63802;DHT22;49949;43.060;25.624;2022-08-24T13:53:43;27.50;99.90
63802;DHT22;49949;43.060;25.624;2022-08-24T13:56:27;27.60;99.90
63802;DHT22;49949;43.060;25.624;2022-08-24T13:58:59;27.80;99.90
63802;DHT22;49949;43.060;25.624;2022-08-24T14:01:36;28.00;99.90
63802;DHT22;49949;43.060;25.624;2022-08-24T14:12:00;28.70;99.90
63802;DHT22;49949;43.060;25.624;2022-08-24T14:15:12;28.10;96.00
63802;DHT22;49949;43.060;25.624;2022-08-24T14:23:24;28.80;90.40
63802;DHT22;49949;43.060;25.624;2022-08-24T14:34:35;28.90;86.50
63802;DHT22;49949;43.060;25.624;2022-08-24T14:37:16;29.00;90.70
63802;DHT22;49949;43.060;25.624;2022-08-24T14:56:50;29.30;89.30
63802;DHT22;49949;43.060;25.624;2022-08-24T15:04:49;29.30;85.10
63802;DHT22;49949;43.060;25.624;2022-08-24T15:07:32;29.30;82.70
63802;DHT22;49949;43.060;25.624;2022-08-24T15:09:59;29.30;84.80
63802;DHT22;49949;43.060;25.624;2022-08-24T15:12:46;29.30;82.60
63802;DHT22;49949;43.060;25.624;2022-08-24T15:15:42;29.20;83.60
63802;DHT22;49949;43.060;25.624;2022-08-24T15:18:27;29.20;83.70
63802;DHT22;49949;43.060;25.624;2022-08-24T15:26:44;29.10;85.40
63802;DHT22;49949;43.060;25.624;2022-08-24T15:29:24;29.10;88.60
63802;DHT22;49949;43.060;25.624;2022-08-24T15:32:09;29.00;85.50
63802;DHT22;49949;43.060;25.624;2022-08-24T15:34:41;29.00;84.60
63802;DHT22;49949;43.060;25.624;2022-08-24T15:37:11;29.00;82.30
63802;DHT22;49949;43.060;25.624;2022-08-24T15:39:36;29.10;83.60
63802;DHT22;49949;43.060;25.624;2022-08-24T15:42:12;29.00;82.30
63802;DHT22;49949;43.060;25.624;2022-08-24T15:44:40;28.90;82.70
63802;DHT22;49949;43.060;25.624;2022-08-24T15:47:23;29.00;82.60
63802;DHT22;49949;43.060;25.624;2022-08-24T15:53:24;29.00;84.60
63802;DHT22;49949;43.060;25.624;2022-08-24T15:55:50;28.90;83.50
63802;DHT22;49949;43.060;25.624;2022-08-24T15:58:34;28.70;86.50
63802;DHT22;49949;43.060;25.624;2022-08-24T16:03:56;28.40;86.20
63802;DHT22;49949;43.060;25.624;2022-08-24T16:11:34;28.40;88.80
63802;DHT22;49949;43.060;25.624;2022-08-24T16:14:05;28.40;91.10
63802;DHT22;49949;43.060;25.624;2022-08-24T16:16:42;28.20;90.60
63802;DHT22;49949;43.060;25.624;2022-08-24T16:19:19;28.10;91.70
63802;DHT22;49949;43.060;25.624;2022-08-24T16:21:55;28.00;93.50
63802;DHT22;49949;43.060;25.624;2022-08-24T16:24:24;27.90;93.40
63802;DHT22;49949;43.060;25.624;2022-08-24T16:26:59;27.80;95.10
63802;DHT22;49949;43.060;25.624;2022-08-24T16:32:50;27.40;99.50
63802;DHT22;49949;43.060;25.624;2022-08-24T16:35:20;27.10;99.90
63802;DHT22;49949;43.060;25.624;2022-08-24T16:37:45;26.90;99.90
63802;DHT22;49949;43.060;25.624;2022-08-24T16:40:11;26.70;99.90
63802;DHT22;49949;43.060;25.624;2022-08-24T16:42:38;26.60;99.90
63802;DHT22;49949;43.060;25.624;2022-08-24T16:45:05;26.50;99.90
63802;DHT22;49949;43.060;25.624;2022-08-24T16:47:32;26.40;99.90
63802;DHT22;49949;43.060;25.624;2022-08-24T16:49:58;26.10;99.90
63802;DHT22;49949;43.060;25.624;2022-08-24T16:52:23;26.00;99.90
63802;DHT22;49949;43.060;25.624;2022-08-24T16:54:49;25.90;99.90
63802;DHT22;49949;43.060;25.624;2022-08-24T16:57:23;25.70;99.90
63802;DHT22;49949;43.060;25.624;2022-08-24T16:59:52;25.60;99.90
63802;DHT22;49949;43.060;25.624;2022-08-24T17:02:19;25.40;99.90
63802;DHT22;49949;43.060;25.624;2022-08-24T17:04:46;25.20;99.90
63802;DHT22;49949;43.060;25.624;2022-08-24T17:07:19;25.10;99.90
63802;DHT22;49949;43.060;25.624;2022-08-24T17:09:46;25.00;99.90
63802;DHT22;49949;43.060;25.624;2022-08-24T17:12:13;25.00;99.90
63802;DHT22;49949;43.060;25.624;2022-08-24T17:14:39;24.80;99.90
63802;DHT22;49949;43.060;25.624;2022-08-24T17:17:08;24.80;99.90
63802;DHT22;49949;43.060;25.624;2022-08-24T17:19:35;24.70;99.90
63802;DHT22;49949;43.060;25.624;2022-08-24T17:22:01;24.50;99.90
63802;DHT22;49949;43.060;25.624;2022-08-24T17:24:28;24.40;99.90
63802;DHT22;49949;43.060;25.624;2022-08-24T17:26:54;24.30;99.90
63802;DHT22;49949;43.060;25.624;2022-08-24T17:29:20;24.20;99.90
63802;DHT22;49949;43.060;25.624;2022-08-24T17:31:47;24.10;99.90
63802;DHT22;49949;43.060;25.624;2022-08-24T17:34:17;24.10;99.90
63802;DHT22;49949;43.060;25.624;2022-08-24T17:36:50;23.90;99.90
63802;DHT22;49949;43.060;25.624;2022-08-24T17:39:17;23.80;99.90
63802;DHT22;49949;43.060;25.624;2022-08-24T17:41:44;23.70;99.90
63802;DHT22;49949;43.060;25.624;2022-08-24T17:44:12;23.70;99.90
63802;DHT22;49949;43.060;25.624;2022-08-24T17:46:39;23.60;99.90
63802;DHT22;49949;43.060;25.624;2022-08-24T17:49:06;23.50;99.90
63802;DHT22;49949;43.060;25.624;2022-08-24T17:51:34;23.40;99.90
63802;DHT22;49949;43.060;25.624;2022-08-24T17:53:59;23.40;99.90
63802;DHT22;49949;43.060;25.624;2022-08-24T17:56:29;23.30;99.90
63802;DHT22;49949;43.060;25.624;2022-08-24T17:58:55;23.30;99.90
63802;DHT22;49949;43.060;25.624;2022-08-24T18:01:39;23.30;99.90
63802;DHT22;49949;43.060;25.624;2022-08-24T18:04:04;23.20;99.90
63802;DHT22;49949;43.060;25.624;2022-08-24T18:06:31;23.20;99.90
63802;DHT22;49949;43.060;25.624;2022-08-24T18:09:02;23.20;99.90
63802;DHT22;49949;43.060;25.624;2022-08-24T18:11:29;23.10;99.90
63802;DHT22;49949;43.060;25.624;2022-08-24T18:13:55;23.10;99.90
63802;DHT22;49949;43.060;25.624;2022-08-24T18:16:23;23.00;99.90
63802;DHT22;49949;43.060;25.624;2022-08-24T18:18:50;22.90;99.90
63802;DHT22;49949;43.060;25.624;2022-08-24T18:21:17;22.80;99.90
63802;DHT22;49949;43.060;25.624;2022-08-24T18:23:45;22.80;99.90
63802;DHT22;49949;43.060;25.624;2022-08-24T18:26:11;22.70;99.90
63802;DHT22;49949;43.060;25.624;2022-08-24T18:28:37;22.70;99.90
63802;DHT22;49949;43.060;25.624;2022-08-24T18:31:03;22.70;99.90
63802;DHT22;49949;43.060;25.624;2022-08-24T18:33:29;22.70;99.90
63802;DHT22;49949;43.060;25.624;2022-08-24T18:35:54;22.60;99.90
63802;DHT22;49949;43.060;25.624;2022-08-24T18:38:20;22.50;99.90
63802;DHT22;49949;43.060;25.624;2022-08-24T18:40:46;22.50;99.90
63802;DHT22;49949;43.060;25.624;2022-08-24T18:43:14;22.50;99.90
63802;DHT22;49949;43.060;25.624;2022-08-24T18:45:43;22.40;99.90
63802;DHT22;49949;43.060;25.624;2022-08-24T18:48:08;22.40;99.90
63802;DHT22;49949;43.060;25.624;2022-08-24T18:50:34;22.30;99.90
63802;DHT22;49949;43.060;25.624;2022-08-24T18:53:00;22.40;99.90
63802;DHT22;49949;43.060;25.624;2022-08-24T18:55:26;22.40;99.90
63802;DHT22;49949;43.060;25.624;2022-08-24T18:57:52;22.40;99.90
63802;DHT22;49949;43.060;25.624;2022-08-24T19:00:18;22.40;99.90
63802;DHT22;49949;43.060;25.624;2022-08-24T19:02:44;22.30;99.90
63802;DHT22;49949;43.060;25.624;2022-08-24T19:05:22;22.30;99.90
63802;DHT22;49949;43.060;25.624;2022-08-24T19:07:50;22.20;99.90
63802;DHT22;49949;43.060;25.624;2022-08-24T19:10:19;22.20;99.90
63802;DHT22;49949;43.060;25.624;2022-08-24T19:12:48;22.20;99.90
63802;DHT22;49949;43.060;25.624;2022-08-24T19:15:16;22.10;99.90
63802;DHT22;49949;43.060;25.624;2022-08-24T19:17:43;22.00;99.90
63802;DHT22;49949;43.060;25.624;2022-08-24T19:20:11;22.00;99.90
63802;DHT22;49949;43.060;25.624;2022-08-24T19:22:38;22.00;99.90
63802;DHT22;49949;43.060;25.624;2022-08-24T19:25:06;21.90;99.90